Time;durP1;ratioP1;P1;durP2;ratioP2;P2;SDS_P1;SDS_P2;PMS_P1;PMS_P2;Temp;Humidity;BMP_temperature;BMP_pressure;BME280_temperature;BME280_humidity;BME280_pressure;Samples;Min_cycle;Max_cycle;Signal;HPM_P1;HPM_P2
2022/05/14 00:00:26;;;;;;;5.43;3.60;;;;;;;19.49;72.70;100388.63;5133042;27;20035;-64
2022/05/14 00:02:51;;;;;;;3.92;3.50;;;;;;;19.44;73.00;100386.47;5133088;27;20139;-64
2022/05/14 00:05:20;;;;;;;4.90;3.75;;;;;;;19.41;73.11;100386.84;5133058;27;20550;-64
2022/05/14 00:07:46;;;;;;;6.15;3.97;;;;;;;19.36;72.88;100380.28;5132954;27;20364;-64
2022/05/14 00:10:13;;;;;;;5.00;3.67;;;;;;;19.39;73.54;100388.06;5132083;27;20027;-72
2022/05/14 00:15:23;;;;;;;3.90;3.50;;;;;;;19.34;73.92;100379.63;5132231;27;20501;-72
2022/05/14 00:17:48;;;;;;;4.28;3.67;;;;;;;19.27;74.26;100379.56;5133129;27;20551;-72
2022/05/14 00:20:15;;;;;;;4.78;3.92;;;;;;;19.22;75.32;100392.00;5131636;27;20098;-71
2022/05/14 00:22:41;;;;;;;7.35;3.90;;;;;;;19.13;75.88;100377.66;5133078;27;20395;-72
2022/05/14 00:25:07;;;;;;;6.82;4.00;;;;;;;19.10;75.44;100372.59;5133199;27;20087;-72
2022/05/14 00:27:33;;;;;;;3.75;3.40;;;;;;;19.08;75.83;100384.66;5133245;27;20020;-71
2022/05/14 00:29:58;;;;;;;5.20;4.22;;;;;;;19.05;77.08;100388.63;5133048;27;20069;-72
2022/05/14 00:32:24;;;;;;;4.88;3.55;;;;;;;19.02;76.48;100383.56;5132882;27;20027;-72
2022/05/14 00:34:49;;;;;;;6.07;3.97;;;;;;;19.01;76.63;100383.72;5132796;27;20526;-72
2022/05/14 00:37:15;;;;;;;4.82;4.05;;;;;;;18.99;77.34;100381.19;5132948;27;20023;-72
2022/05/14 00:39:41;;;;;;;7.32;3.83;;;;;;;18.86;77.86;100377.47;5132490;27;20046;-72
2022/05/14 00:42:07;;;;;;;7.05;3.95;;;;;;;18.91;77.85;100380.44;5132818;27;20355;-72
2022/05/14 00:44:32;;;;;;;4.55;3.85;;;;;;;18.84;78.91;100384.94;5133033;27;20451;-72
2022/05/14 00:47:05;;;;;;;7.93;4.10;;;;;;;18.88;79.02;100397.13;5132509;27;20026;-72
2022/05/14 00:49:33;;;;;;;4.85;4.05;;;;;;;18.88;79.14;100400.69;5132611;27;20043;-71
2022/05/14 00:52:00;;;;;;;3.72;3.33;;;;;;;18.93;77.87;100400.97;5132587;27;20061;-72
2022/05/14 00:54:34;;;;;;;7.85;4.53;;;;;;;18.85;78.40;100384.75;5132489;27;20470;-72
2022/05/14 00:57:03;;;;;;;;;;;;;;;18.89;77.86;100393.41;5133209;27;20031;-72
2022/05/14 00:59:28;;;;;;;3.83;3.53;;;;;;;18.87;78.72;100398.16;5132455;27;20014;-72
2022/05/14 01:01:55;;;;;;;9.80;5.22;;;;;;;18.81;78.74;100394.31;5131252;27;20231;-73
2022/05/14 01:04:21;;;;;;;4.60;3.70;;;;;;;18.74;78.93;100377.06;5132429;27;20066;-72
2022/05/14 01:06:57;;;;;;;6.35;4.70;;;;;;;18.70;79.66;100380.34;5132226;27;20031;-72
2022/05/14 01:09:23;;;;;;;6.10;4.13;;;;;;;18.76;79.63;100395.91;5132226;27;20026;-72
2022/05/14 01:11:50;;;;;;;4.43;3.90;;;;;;;18.69;79.50;100381.34;5130914;27;20023;-72
2022/05/14 01:14:16;;;;;;;5.03;4.03;;;;;;;18.64;80.43;100383.81;5132355;27;20027;-72
2022/05/14 01:16:41;;;;;;;4.90;3.97;;;;;;;18.68;80.65;100388.69;5131968;27;20036;-72
2022/05/14 01:19:07;;;;;;;4.45;3.90;;;;;;;18.66;80.29;100392.59;5130641;27;20019;-72
2022/05/14 01:21:42;;;;;;;4.40;4.00;;;;;;;18.63;81.03;100391.09;5131964;27;20379;-71
2022/05/14 01:27:06;;;;;;;6.35;4.13;;;;;;;18.50;81.97;100380.00;5131880;27;20040;-72
2022/05/14 01:29:31;;;;;;;5.28;4.60;;;;;;;18.51;82.00;100380.88;5131794;27;20019;-71
2022/05/14 01:31:57;;;;;;;6.05;4.63;;;;;;;18.57;80.64;100388.28;5132138;27;20122;-72
2022/05/14 01:34:30;;;;;;;4.93;4.22;;;;;;;18.55;81.79;100393.91;5130978;27;20034;-72
2022/05/14 01:36:56;;;;;;;7.63;4.57;;;;;;;18.49;82.57;100389.19;5132062;27;20071;-72
2022/05/14 01:39:22;;;;;;;4.55;3.97;;;;;;;18.51;82.20;100389.84;5131685;27;20422;-72
2022/05/14 01:41:48;;;;;;;8.57;4.57;;;;;;;18.48;82.18;100392.09;5131711;27;20066;-72
2022/05/14 01:44:14;;;;;;;9.50;4.15;;;;;;;18.39;82.70;100385.03;5130441;27;20031;-72
2022/05/14 01:46:39;;;;;;;5.50;4.10;;;;;;;18.42;81.72;100388.25;5131565;27;20390;-72
2022/05/14 01:49:04;;;;;;;6.97;4.93;;;;;;;18.38;82.26;100394.22;5131733;27;20027;-72
2022/05/14 01:51:30;;;;;;;6.40;4.80;;;;;;;18.31;83.36;100387.81;5131700;27;20884;-72
2022/05/14 01:53:56;;;;;;;6.30;4.45;;;;;;;18.36;82.75;100393.53;5131380;27;20402;-72
2022/05/14 01:56:22;;;;;;;10.40;5.53;;;;;;;18.30;83.35;100388.81;5129977;27;20031;-64
2022/05/14 01:58:47;;;;;;;6.82;4.95;;;;;;;18.28;82.83;100393.59;5129763;27;20078;-64
2022/05/14 02:01:24;;;;;;;4.57;3.95;;;;;;;18.30;81.82;100384.25;5130889;27;20072;-64
2022/05/14 02:03:55;;;;;;;5.53;4.25;;;;;;;18.29;82.62;100398.84;5129515;27;20034;-64
2022/05/14 02:06:22;;;;;;;4.50;4.03;;;;;;;18.22;82.83;100391.63;5128266;27;20058;-64
2022/05/14 02:08:48;;;;;;;4.43;4.00;;;;;;;18.16;82.93;100395.91;5130747;27;20552;-64
2022/05/14 02:11:14;;;;;;;5.35;4.43;;;;;;;18.08;83.67;100391.38;5130603;27;20027;-64
2022/05/14 02:13:41;;;;;;;5.75;4.20;;;;;;;18.04;83.17;100389.19;5130847;27;20062;-64
2022/05/14 02:16:08;;;;;;;4.95;4.45;;;;;;;17.99;82.95;100387.03;5130802;27;20470;-64
2022/05/14 02:18:35;;;;;;;7.88;4.30;;;;;;;17.98;83.65;100398.06;5130655;27;20071;-65
2022/05/14 02:21:01;;;;;;;6.35;4.50;;;;;;;17.95;83.85;100399.28;5129435;27;20720;-64
2022/05/14 02:23:27;;;;;;;4.57;4.03;;;;;;;17.93;84.07;100397.78;5130666;27;20490;-64
2022/05/14 02:25:52;;;;;;;5.60;4.68;;;;;;;17.85;83.82;100397.81;5130547;27;20023;-64
2022/05/14 02:28:18;;;;;;;7.72;5.35;;;;;;;17.77;85.82;100400.59;5130497;27;20059;-64
2022/05/14 02:30:44;;;;;;;5.07;4.55;;;;;;;17.77;84.68;100395.16;5130672;27;20023;-64
2022/05/14 02:33:10;;;;;;;8.85;5.00;;;;;;;17.72;84.90;100392.97;5130553;27;20019;-64
2022/05/14 02:35:36;;;;;;;6.70;4.90;;;;;;;17.72;85.24;100394.84;5130229;27;20783;-64
2022/05/14 02:38:02;;;;;;;7.13;4.25;;;;;;;17.70;85.08;100388.72;5130586;27;20670;-64
2022/05/14 02:40:28;;;;;;;5.05;4.55;;;;;;;17.68;85.15;100398.94;5130475;27;20410;-64
2022/05/14 02:42:53;;;;;;;8.00;5.35;;;;;;;17.55;86.25;100394.09;5130710;27;20023;-64
2022/05/14 02:45:19;;;;;;;6.80;5.05;;;;;;;17.57;86.30;100392.03;5130203;27;20038;-64
2022/05/14 02:47:45;;;;;;;6.68;5.45;;;;;;;17.56;86.45;100394.91;5132700;27;20035;-64
2022/05/14 02:50:11;;;;;;;6.90;5.53;;;;;;;17.49;86.96;100391.22;5134604;27;20046;-64
2022/05/14 02:52:37;;;;;;;5.07;4.38;;;;;;;17.47;86.30;100388.69;5134361;27;20111;-64
2022/05/14 02:55:04;;;;;;;5.47;4.30;;;;;;;17.54;85.77;100395.09;5133191;27;20050;-64
2022/05/14 02:57:29;;;;;;;8.55;5.90;;;;;;;17.45;87.08;100395.31;5134549;27;20532;-64
2022/05/14 02:59:54;;;;;;;6.30;5.30;;;;;;;17.42;87.49;100388.38;5134200;27;20027;-64
2022/05/14 03:02:20;;;;;;;8.38;5.70;;;;;;;17.38;87.76;100384.28;5132936;27;20077;-64
2022/05/14 03:04:48;;;;;;;8.25;5.80;;;;;;;17.40;87.91;100392.25;5134062;27;20115;-64
2022/05/14 03:07:15;;;;;;;8.85;4.53;;;;;;;17.45;86.68;100398.84;5134001;27;20038;-64
2022/05/14 03:09:41;;;;;;;6.22;4.90;;;;;;;17.42;86.24;100396.50;5134748;27;20050;-64
2022/05/14 03:12:09;;;;;;;6.30;5.18;;;;;;;17.37;86.53;100398.88;5134191;27;20030;-64
2022/05/14 03:14:34;;;;;;;8.32;5.38;;;;;;;17.27;87.38;100400.09;5130193;27;20166;-64
2022/05/14 03:17:00;;;;;;;7.47;5.55;;;;;;;17.25;86.60;100400.28;5134044;27;20027;-64
2022/05/14 03:19:26;;;;;;;9.98;5.20;;;;;;;17.28;87.02;100412.66;5133479;27;20480;-64
2022/05/14 03:21:51;;;;;;;6.05;5.35;;;;;;;17.26;88.09;100417.41;5134213;27;20067;-64
2022/05/14 03:24:18;;;;;;;9.10;6.15;;;;;;;17.20;88.31;100410.81;5132293;27;20023;-64
2022/05/14 03:26:43;;;;;;;6.55;5.15;;;;;;;17.15;88.55;100417.78;5133163;27;20038;-64
2022/05/14 03:29:10;;;;;;;7.38;6.47;;;;;;;17.17;88.83;100427.44;5132872;27;20478;-64
2022/05/14 03:31:36;;;;;;;6.32;5.63;;;;;;;17.13;88.83;100426.09;5132632;27;20038;-64
2022/05/14 03:34:03;;;;;;;7.57;5.75;;;;;;;17.16;89.40;100424.88;5131972;27;20259;-64
2022/05/14 03:36:29;;;;;;;7.57;6.05;;;;;;;17.17;89.58;100437.41;5133917;27;20086;-64
2022/05/14 03:38:55;;;;;;;7.90;6.18;;;;;;;17.16;89.60;100436.56;5133729;27;20095;-64
2022/05/14 03:41:22;;;;;;;6.95;5.85;;;;;;;17.16;89.53;100425.72;5132725;27;20027;-64
2022/05/14 03:43:48;;;;;;;8.25;6.03;;;;;;;17.16;89.65;100436.56;5133782;27;20382;-64
2022/05/14 03:46:14;;;;;;;8.43;6.07;;;;;;;17.14;89.51;100435.03;5132568;27;20023;-64
2022/05/14 03:48:40;;;;;;;6.80;6.15;;;;;;;17.19;89.06;100432.69;5133697;27;20027;-64
2022/05/14 03:51:06;;;;;;;8.82;5.50;;;;;;;17.16;88.97;100427.59;5133403;27;20023;-65
2022/05/14 03:53:32;;;;;;;6.32;5.60;;;;;;;17.23;88.32;100432.16;5133376;27;20984;-64
2022/05/14 03:55:58;;;;;;;8.07;6.55;;;;;;;17.16;89.10;100433.03;5132090;27;20074;-65
2022/05/14 03:58:24;;;;;;;11.43;6.90;;;;;;;17.22;89.59;100441.28;5132908;27;20034;-65
2022/05/14 04:00:50;;;;;;;7.50;5.93;;;;;;;17.20;89.49;100429.78;5133507;27;20725;-65
2022/05/14 04:03:16;;;;;;;7.95;6.10;;;;;;;17.25;89.68;100434.69;5133313;27;20027;-64
2022/05/14 04:05:42;;;;;;;6.60;5.88;;;;;;;17.40;89.54;100439.19;5133393;27;20035;-65
2022/05/14 04:08:08;;;;;;;8.18;5.47;;;;;;;17.51;88.92;100444.25;5133446;27;20701;-65
2022/05/14 04:10:34;;;;;;;6.90;6.20;;;;;;;17.65;88.08;100453.53;5133048;27;20024;-64
2022/05/14 04:13:00;;;;;;;10.00;5.53;;;;;;;17.75;87.83;100454.16;5131894;27;20140;-64
2022/05/14 04:15:26;;;;;;;9.27;6.72;;;;;;;17.86;87.50;100467.31;5133022;27;20467;-64
2022/05/14 04:17:52;;;;;;;7.32;6.53;;;;;;;17.95;86.88;100485.25;5133255;27;20031;-65
2022/05/14 04:20:18;;;;;;;9.13;6.35;;;;;;;18.02;86.81;100497.09;5132921;27;20736;-65
2022/05/14 04:22:44;;;;;;;9.43;6.43;;;;;;;18.18;85.88;100490.75;5131658;27;20031;-65
2022/05/14 04:25:11;;;;;;;8.93;6.72;;;;;;;18.23;85.19;100486.47;5131715;27;20031;-64
2022/05/14 04:27:37;;;;;;;8.25;5.70;;;;;;;18.41;84.52;100503.31;5132803;27;20030;-65
2022/05/14 04:30:04;;;;;;;8.20;6.35;;;;;;;18.50;84.18;100501.44;5133024;27;20102;-65
2022/05/14 04:32:29;;;;;;;12.48;7.32;;;;;;;18.68;83.48;100523.69;5132737;27;20083;-65
2022/05/14 04:34:56;;;;;;;12.82;9.18;;;;;;;18.73;82.47;100505.81;5132722;27;20614;-64
2022/05/14 04:37:21;;;;;;;15.82;8.45;;;;;;;18.91;81.73;100513.66;5131422;27;20046;-65
2022/05/14 04:39:47;;;;;;;15.73;9.00;;;;;;;19.10;81.23;100522.13;5132615;27;20043;-65
2022/05/14 04:42:12;;;;;;;11.65;8.75;;;;;;;19.28;79.69;100524.56;5132670;27;20023;-65
2022/05/14 04:44:38;;;;;;;8.57;6.80;;;;;;;19.45;77.77;100523.34;5131989;27;20031;-65
2022/05/14 04:47:04;;;;;;;7.10;6.40;;;;;;;19.52;78.17;100527.00;5130248;27;20034;-65
2022/05/14 04:49:30;;;;;;;7.78;7.03;;;;;;;19.61;77.95;100529.44;5130854;27;20027;-65
2022/05/14 04:51:57;;;;;;;9.88;7.25;;;;;;;19.70;78.22;100528.31;5131891;27;20043;-65
2022/05/14 04:54:23;;;;;;;9.38;6.93;;;;;;;19.83;77.44;100536.66;5131709;27;20047;-65
2022/05/14 04:56:48;;;;;;;10.10;6.88;;;;;;;19.94;76.51;100529.91;5132054;27;20361;-65
2022/05/14 04:59:14;;;;;;;7.95;6.10;;;;;;;20.04;76.30;100542.19;5131932;27;20088;-65
2022/05/14 05:03:16;;;;;;;9.75;6.55;;;;;;;20.15;75.73;100549.91;5132097;27;20030;-65
2022/05/14 05:04:34;;;;;;;6.47;5.65;;;;;;;20.31;75.63;100527.03;5131813;27;20533;-66
2022/05/14 05:07:00;;;;;;;6.60;5.43;;;;;;;20.46;75.56;100529.72;5131634;27;20034;-65
2022/05/14 05:09:26;;;;;;;8.77;6.93;;;;;;;20.56;73.58;100528.38;5130847;27;20023;-65
2022/05/14 05:11:51;;;;;;;7.22;5.93;;;;;;;20.73;72.63;100546.16;5131895;27;20027;-65
2022/05/14 05:14:17;;;;;;;10.02;6.00;;;;;;;20.71;72.47;100534.63;5131687;27;20023;-65
2022/05/14 05:16:43;;;;;;;7.32;6.43;;;;;;;20.78;72.58;100532.78;5130251;27;20031;-65
2022/05/14 05:19:09;;;;;;;6.38;5.72;;;;;;;20.85;72.43;100533.69;5131635;27;20037;-65
2022/05/14 05:21:35;;;;;;;8.93;6.30;;;;;;;21.05;71.58;100548.38;5131318;27;20039;-65
2022/05/14 05:24:05;;;;;;;6.78;5.80;;;;;;;21.18;71.81;100558.59;5129942;27;20026;-65
2022/05/14 05:26:31;;;;;;;7.38;5.35;;;;;;;21.28;70.47;100562.63;5131330;27;20467;-65
2022/05/14 05:28:57;;;;;;;6.15;5.35;;;;;;;21.37;70.51;100553.28;5131385;27;20027;-65
2022/05/14 05:31:22;;;;;;;9.60;6.40;;;;;;;21.46;69.74;100563.00;5131316;27;20030;-65
2022/05/14 05:33:47;;;;;;;5.40;4.88;;;;;;;21.54;69.15;100571.03;5131698;27;20057;-65
2022/05/14 05:36:13;;;;;;;8.45;5.10;;;;;;;21.62;68.44;100564.56;5131108;27;20030;-65
2022/05/14 05:38:38;;;;;;;7.00;6.18;;;;;;;21.61;68.75;100561.00;5131268;27;20039;-64
2022/05/14 05:41:04;;;;;;;7.68;5.05;;;;;;;21.66;68.61;100566.72;5131322;27;20027;-64
2022/05/14 05:43:29;;;;;;;7.82;6.00;;;;;;;21.70;68.63;100572.63;5129898;27;20030;-64
2022/05/14 05:45:56;;;;;;;10.70;5.45;;;;;;;21.70;67.78;100558.97;5131149;27;20038;-64
2022/05/14 05:48:22;;;;;;;5.80;5.00;;;;;;;21.83;67.65;100572.75;5131198;27;20094;-65
2022/05/14 05:50:48;;;;;;;7.78;4.68;;;;;;;21.86;67.54;100564.97;5131027;27;20042;-64
2022/05/14 05:53:16;;;;;;;7.95;5.05;;;;;;;21.97;66.76;100577.22;5129809;27;20058;-64
2022/05/14 05:58:26;;;;;;;6.45;5.03;;;;;;;22.22;66.03;100579.25;5130758;27;20034;-63
2022/05/14 06:00:51;;;;;;;8.00;5.32;;;;;;;22.33;65.70;100575.09;5131028;27;20031;-64
2022/05/14 06:03:17;;;;;;;5.22;4.68;;;;;;;22.49;65.17;100571.16;5130436;27;20022;-63
2022/05/14 06:05:43;;;;;;;7.15;4.60;;;;;;;22.58;64.97;100569.94;5130587;27;20031;-64
2022/05/14 06:08:11;;;;;;;5.70;4.70;;;;;;;22.80;64.65;100583.28;5130743;27;20027;-64
2022/05/14 06:10:36;;;;;;;4.85;4.45;;;;;;;22.94;63.89;100582.25;5129520;27;20026;-64
2022/05/14 06:13:02;;;;;;;12.38;5.47;;;;;;;23.05;63.35;100572.59;5129334;27;20034;-63
2022/05/14 06:15:27;;;;;;;11.13;4.60;;;;;;;23.22;62.54;100585.66;5130493;27;20018;-64
2022/05/14 06:17:53;;;;;;;7.03;4.50;;;;;;;23.30;62.37;100582.72;5130559;27;20052;-64
2022/05/14 06:20:19;;;;;;;4.70;4.18;;;;;;;23.47;61.70;100585.91;5132290;27;20054;-64
2022/05/14 06:22:45;;;;;;;8.23;4.43;;;;;;;23.44;61.11;100573.44;5132502;27;20126;-64
2022/05/14 06:25:11;;;;;;;12.00;4.45;;;;;;;23.66;60.52;100580.38;5131938;27;20049;-64
2022/05/14 06:27:37;;;;;;;9.57;4.40;;;;;;;23.77;60.43;100579.72;5131828;27;20026;-63
2022/05/14 06:30:03;;;;;;;5.20;4.00;;;;;;;23.92;60.92;100582.22;5132013;27;20087;-64
2022/05/14 06:32:29;;;;;;;6.38;4.07;;;;;;;24.06;60.12;100582.00;5132185;27;20022;-64
2022/05/14 06:34:54;;;;;;;9.98;4.53;;;;;;;24.20;59.90;100578.19;5132065;27;20022;-64
2022/05/14 06:37:20;;;;;;;4.93;4.18;;;;;;;24.31;58.80;100576.66;5130681;28;20038;-65
2022/05/14 06:39:45;;;;;;;8.57;4.57;;;;;;;24.38;58.45;100570.09;5131806;27;20034;-65
2022/05/14 06:42:12;;;;;;;6.75;4.22;;;;;;;24.61;58.01;100588.78;5131909;27;20475;-65
2022/05/14 06:44:38;;;;;;;6.88;5.30;;;;;;;24.67;57.51;100582.44;5131511;28;20016;-65
2022/05/14 06:47:03;;;;;;;9.20;5.00;;;;;;;24.82;56.66;100588.47;5132329;27;20109;-65
2022/05/14 06:49:29;;;;;;;6.68;4.97;;;;;;;24.89;56.32;100581.03;5131746;27;20019;-65
2022/05/14 06:51:58;;;;;;;6.18;4.50;;;;;;;25.01;55.91;100581.16;5131212;27;20054;-65
2022/05/14 06:54:23;;;;;;;10.82;4.75;;;;;;;25.17;54.93;100591.59;5130599;28;20372;-65
2022/05/14 06:56:49;;;;;;;6.95;4.50;;;;;;;25.22;54.74;100595.38;5132267;27;20111;-65
2022/05/14 06:59:15;;;;;;;4.85;4.35;;;;;;;25.34;54.51;100593.63;5132253;27;20459;-65
2022/05/14 07:01:43;;;;;;;4.60;3.85;;;;;;;25.45;54.11;100592.91;5131876;27;20100;-65
2022/05/14 07:06:56;;;;;;;4.97;3.72;;;;;;;25.70;51.96;100599.22;5131403;28;20050;-65
2022/05/14 07:09:27;;;;;;;5.72;4.22;;;;;;;25.73;52.05;100607.00;5132024;27;20483;-65
2022/05/14 07:11:57;;;;;;;8.35;4.72;;;;;;;25.69;51.13;100591.19;5130266;28;20047;-65
2022/05/14 07:14:24;;;;;;;3.53;3.10;;;;;;;25.75;51.67;100593.03;5131760;27;20363;-73
2022/05/14 07:16:50;;;;;;;4.10;2.97;;;;;;;25.93;50.25;100599.41;5131902;27;20023;-73
2022/05/14 07:19:16;;;;;;;9.15;3.75;;;;;;;25.95;49.06;100594.53;5132201;27;20026;-74
2022/05/14 07:21:44;;;;;;;8.50;3.40;;;;;;;25.98;47.19;100599.59;5130296;28;20039;-73
2022/05/14 07:24:16;;;;;;;8.40;4.30;;;;;;;26.09;47.32;100606.25;5129052;28;20035;-73
2022/05/14 07:26:43;;;;;;;4.47;2.95;;;;;;;26.19;47.47;100610.19;5132265;27;20033;-73
2022/05/14 07:29:14;;;;;;;5.47;2.75;;;;;;;26.34;46.85;100598.75;5131612;27;20023;-73
2022/05/14 07:31:40;;;;;;;5.80;2.88;;;;;;;26.38;46.06;100589.81;5131702;27;20015;-73
2022/05/14 07:34:07;;;;;;;7.22;3.00;;;;;;;26.51;45.02;100599.84;5134214;27;20528;-74
2022/05/14 07:36:40;;;;;;;6.43;2.85;;;;;;;26.52;45.01;100598.75;5135437;27;20159;-74
2022/05/14 07:39:06;;;;;;;6.37;2.87;;;;;;;26.61;44.67;100607.53;5135691;27;20026;-73
2022/05/14 07:41:33;;;;;;;7.40;2.78;;;;;;;26.67;43.61;100613.00;5135115;27;20501;-74
2022/05/14 07:44:03;;;;;;;5.68;2.90;;;;;;;26.70;43.80;100620.78;5135354;27;20397;-74
2022/05/14 07:46:34;;;;;;;3.10;2.80;;;;;;;26.80;43.34;100607.31;5135048;27;20027;-74
2022/05/14 07:49:01;;;;;;;4.38;2.65;;;;;;;26.75;43.53;100596.16;5134782;27;20019;-73
2022/05/14 07:51:27;;;;;;;6.60;2.88;;;;;;;26.94;44.09;100614.31;5134898;27;20098;-74
2022/05/14 07:53:53;;;;;;;7.50;3.40;;;;;;;26.98;43.75;100606.44;5135399;27;20074;-74
2022/05/14 07:56:19;;;;;;;8.05;2.95;;;;;;;27.03;44.34;100607.41;5134983;27;20023;-73
2022/05/14 07:58:46;;;;;;;9.05;2.95;;;;;;;27.16;40.94;100607.19;5133737;27;20113;-74
2022/05/14 08:01:11;;;;;;;5.28;2.53;;;;;;;27.05;41.82;100621.75;5134895;27;20502;-74
2022/05/14 08:03:37;;;;;;;4.13;2.65;;;;;;;27.06;41.75;100615.19;5134929;27;20019;-73
2022/05/14 08:06:03;;;;;;;5.93;2.83;;;;;;;27.17;41.23;100608.03;5133690;27;20493;-73
2022/05/14 08:08:29;;;;;;;4.47;2.38;;;;;;;27.22;40.40;100614.53;5133803;27;20107;-74
2022/05/14 08:10:55;;;;;;;6.07;2.58;;;;;;;27.21;40.79;100610.06;5133142;27;20064;-73
2022/05/14 08:13:23;;;;;;;4.10;2.75;;;;;;;27.28;40.08;100607.25;5133457;27;20023;-74
2022/05/14 08:15:51;;;;;;;5.90;2.95;;;;;;;27.27;39.69;100611.91;5131639;27;20478;-74
2022/05/14 08:18:17;;;;;;;3.70;2.20;;;;;;;27.24;39.40;100600.56;5133086;27;20382;-74
2022/05/14 08:20:45;;;;;;;13.20;3.22;;;;;;;27.21;38.76;100598.22;5132660;27;20498;-74
2022/05/14 08:26:29;;;;;;;4.57;2.67;;;;;;;27.27;38.79;100581.63;5132930;27;20038;-75
2022/05/14 08:29:00;;;;;;;6.90;3.30;;;;;;;27.35;39.99;100602.47;5132637;27;20109;-78
2022/05/14 08:31:31;;;;;;;5.95;3.30;;;;;;;27.26;39.61;100601.13;5132462;27;20019;-77
2022/05/14 08:33:56;;;;;;;7.10;3.30;;;;;;;27.14;39.98;100594.75;5133054;27;20079;-74
2022/05/14 08:36:22;;;;;;;5.10;3.15;;;;;;;27.04;39.88;100595.31;5131901;27;20023;-74
2022/05/14 08:38:47;;;;;;;5.80;2.85;;;;;;;26.92;40.55;100591.66;5132965;27;20512;-75
2022/05/14 08:41:15;;;;;;;11.02;3.30;;;;;;;26.76;40.99;100586.00;5130199;27;20062;-75
2022/05/14 08:43:47;;;;;;;8.18;3.55;;;;;;;26.72;41.33;100599.34;5130342;27;20058;-74
2022/05/14 08:46:19;;;;;;;6.60;3.00;;;;;;;26.61;41.56;100589.16;5130992;27;20067;-75
2022/05/14 08:48:50;;;;;;;8.13;3.42;;;;;;;26.43;41.56;100592.72;5132543;27;20099;-75
2022/05/14 08:51:20;;;;;;;5.65;3.42;;;;;;;26.30;42.14;100586.53;5132540;27;20043;-75
2022/05/14 08:53:49;;;;;;;11.75;4.03;;;;;;;26.19;42.34;100590.06;5132449;27;20476;-74
2022/05/14 08:56:24;;;;;;;3.75;3.05;;;;;;;26.17;41.71;100589.44;5132640;27;20027;-74
2022/05/14 08:59:11;;;;;;;5.35;2.70;;;;;;;26.18;40.95;100593.91;5132345;27;20054;-74
2022/05/14 09:01:43;;;;;;;4.80;2.60;;;;;;;26.20;40.32;100581.59;5131117;27;20034;-75
2022/05/14 09:04:10;;;;;;;42.60;23.58;;;;;;;26.41;40.54;100588.53;5130882;27;20479;-75
2022/05/14 09:06:38;;;;;;;40.80;22.40;;;;;;;26.53;39.48;100586.66;5132376;27;20049;-75
2022/05/14 09:09:03;;;;;;;12.75;5.10;;;;;;;26.59;38.45;100568.41;5132180;27;20035;-74
2022/05/14 09:11:51;;;;;;;6.43;2.40;;;;;;;26.67;37.11;100577.22;5131043;27;20434;-75
2022/05/14 09:14:55;;;;;;;8.48;2.80;;;;;;;26.69;35.65;100571.47;5132413;27;20031;-73
2022/05/14 09:17:23;;;;;;;5.63;1.23;;;;;;;26.83;34.56;100573.81;5098655;27;20042;-74
2022/05/14 09:19:51;;;;;;;4.97;1.85;;;;;;;26.81;33.93;100562.19;5132290;27;20072;-75
2022/05/14 09:22:35;;;;;;;3.50;1.60;;;;;;;26.75;33.29;100578.78;5130831;27;20395;-75
2022/05/14 09:25:40;;;;;;;6.10;1.60;;;;;;;26.59;33.07;100562.91;5131972;27;20523;-74
2022/05/14 09:28:23;;;;;;;4.28;1.85;;;;;;;26.46;33.39;100561.16;5048329;28;20033;-75
2022/05/14 09:30:57;;;;;;;2.17;1.30;;;;;;;26.45;33.84;100559.47;5048549;28;20120;-75
2022/05/14 09:33:38;;;;;;;2.65;1.20;;;;;;;26.58;33.47;100566.72;5093113;27;20129;-75
2022/05/14 09:36:07;;;;;;;6.25;1.67;;;;;;;26.62;33.24;100546.78;5127404;27;20062;-74
2022/05/14 09:38:32;;;;;;;5.22;2.35;;;;;;;26.76;33.38;100564.78;5129458;27;20551;-75
2022/05/14 09:41:25;;;;;;;4.82;2.10;;;;;;;26.80;33.21;100557.75;5131853;27;20032;-74
2022/05/14 09:43:55;;;;;;;4.95;1.30;;;;;;;26.90;32.09;100537.91;5130060;27;20034;-73
2022/05/14 09:46:32;;;;;;;7.55;2.13;;;;;;;27.05;32.56;100563.09;5130882;27;20421;-74
2022/05/14 09:49:06;;;;;;;8.63;2.00;;;;;;;27.01;32.69;100578.44;5131717;27;20497;-73
2022/05/14 09:51:35;;;;;;;9.32;1.88;;;;;;;26.91;32.72;100578.97;5130836;27;20088;-74
2022/05/14 09:54:32;;;;;;;4.43;1.40;;;;;;;26.88;32.03;100575.84;5128921;27;20049;-74
2022/05/14 09:57:12;;;;;;;6.78;2.25;;;;;;;26.83;32.17;100567.47;5128727;27;20570;-74
2022/05/14 09:59:38;;;;;;;5.75;1.73;;;;;;;26.84;32.21;100566.38;5129870;27;20088;-73
2022/05/14 10:02:25;;;;;;;10.45;2.60;;;;;;;26.85;32.22;100560.63;5131087;27;20064;-74
2022/05/14 10:05:09;;;;;;;5.95;1.50;;;;;;;26.92;32.13;100564.13;5128874;27;20566;-74
2022/05/14 10:08:12;;;;;;;8.57;1.83;;;;;;;26.84;31.84;100556.22;5130963;27;20066;-76
2022/05/14 10:10:46;;;;;;;4.07;1.52;;;;;;;26.81;32.15;100558.59;5126976;27;20027;-75
2022/05/14 10:13:27;;;;;;;7.20;3.10;;;;;;;26.81;32.29;100555.81;5130323;27;20031;-73
2022/05/14 10:15:55;;;;;;;6.13;2.88;;;;;;;26.87;32.21;100554.91;5130698;27;20483;-75
2022/05/14 10:18:52;;;;;;;14.55;6.18;;;;;;;26.91;32.32;100545.09;5130242;27;20354;-73
2022/05/14 10:21:46;;;;;;;6.95;1.50;;;;;;;27.07;32.25;100553.53;5129167;27;20030;-74
2022/05/14 10:27:45;;;;;;;8.20;2.15;;;;;;;27.02;32.38;100558.06;5130255;27;20136;-74
2022/05/14 10:30:37;;;;;;;5.88;1.50;;;;;;;26.99;31.98;100548.38;5129724;27;20107;-73
2022/05/14 10:33:12;;;;;;;5.57;1.67;;;;;;;26.96;31.79;100559.84;5126688;27;20031;-72
2022/05/14 10:36:05;;;;;;;8.23;1.85;;;;;;;26.96;31.97;100557.09;5121986;27;20034;-72
2022/05/14 10:38:53;;;;;;;4.55;1.88;;;;;;;26.93;32.18;100548.47;5121354;28;20039;-72
2022/05/14 10:41:39;;;;;;;5.13;1.60;;;;;;;26.93;32.16;100556.72;5120802;28;20076;-73
2022/05/14 10:44:23;;;;;;;5.05;1.80;;;;;;;26.92;32.24;100557.81;5122109;28;20046;-72
2022/05/14 10:46:48;;;;;;;7.97;2.00;;;;;;;26.86;31.40;100545.81;5123621;27;20058;-73
2022/05/14 10:50:06;;;;;;;6.28;2.13;;;;;;;26.88;31.65;100551.06;5120067;28;20050;-72
2022/05/14 10:52:32;;;;;;;4.55;1.42;;;;;;;26.89;31.46;100550.81;5105764;28;20051;-72
2022/05/14 10:54:57;;;;;;;8.95;1.48;;;;;;;26.85;31.85;100535.84;5122070;27;20050;-72
2022/05/14 10:58:04;;;;;;;7.35;1.95;;;;;;;26.78;32.12;100546.13;5126945;28;20088;-72
2022/05/14 11:00:29;;;;;;;5.50;2.05;;;;;;;26.81;32.33;100548.41;5089987;28;20067;-72
2022/05/14 11:03:02;;;;;;;5.18;1.65;;;;;;;26.80;31.30;100538.50;5127110;27;20083;-73
2022/05/14 11:05:47;;;;;;;2.25;1.00;;;;;;;26.78;31.84;100539.78;5121817;27;20030;-71
2022/05/14 11:08:14;;;;;;;5.07;1.65;;;;;;;26.78;32.04;100537.03;5126825;27;20169;-72
2022/05/14 11:10:41;;;;;;;4.07;1.67;;;;;;;26.67;31.95;100533.19;5128787;27;20032;-72
2022/05/14 11:13:18;;;;;;;6.63;1.60;;;;;;;26.73;31.81;100536.91;5125476;27;20502;-73
2022/05/14 11:15:44;;;;;;;3.25;1.40;;;;;;;26.73;32.02;100540.50;5129885;27;20019;-73
2022/05/14 11:18:16;;;;;;;6.30;1.38;;;;;;;26.75;32.28;100543.84;5123515;27;20047;-73
2022/05/14 11:21:00;;;;;;;10.50;2.00;;;;;;;26.75;32.12;100532.84;5128263;27;20027;-73
2022/05/14 11:23:27;;;;;;;4.88;1.60;;;;;;;26.70;32.30;100523.59;5127479;27;20034;-74
2022/05/14 11:26:07;;;;;;;4.80;1.50;;;;;;;26.73;32.42;100523.13;5124573;27;20095;-74
2022/05/14 11:28:33;;;;;;;6.57;1.85;;;;;;;26.76;32.04;100520.75;5124585;27;20023;-72
2022/05/14 11:31:17;;;;;;;5.65;2.10;;;;;;;26.68;32.38;100525.75;5128122;27;20088;-73
2022/05/14 11:33:44;;;;;;;2.85;1.23;;;;;;;26.63;31.90;100529.19;5127354;27;20026;-73
2022/05/14 11:36:10;;;;;;;5.15;1.30;;;;;;;26.60;31.51;100515.91;5125819;27;20915;-73
2022/05/14 11:38:38;;;;;;;8.77;1.38;;;;;;;26.51;32.32;100531.88;5123142;27;20028;-74
2022/05/14 11:41:26;;;;;;;5.10;2.00;;;;;;;26.50;32.30;100521.94;5132159;27;20031;-73
2022/05/14 11:43:53;;;;;;;4.80;1.42;;;;;;;26.42;32.24;100522.28;5132500;27;20038;-73
2022/05/14 11:46:33;;;;;;;2.35;1.40;;;;;;;26.49;32.45;100527.69;5131011;27;20106;-73
2022/05/14 11:49:03;;;;;;;15.40;2.42;;;;;;;26.46;32.00;100528.13;5131951;27;20042;-73
2022/05/14 11:51:43;;;;;;;5.05;1.40;;;;;;;26.46;31.65;100525.38;5132823;27;20612;-73